sensor_id;sensor_type;location;lat;lon;timestamp;pressure;altitude;pressure_sealevel;temperature;humidity
14689;BME280;7432;48.728;9.154;2023-01-24T00:00:45;97876.72;;;1.40;98.80
14689;BME280;7432;48.728;9.154;2023-01-24T00:03:12;97885.25;;;1.39;98.08
14689;BME280;7432;48.728;9.154;2023-01-24T00:05:38;97879.25;;;1.40;98.29
14689;BME280;7432;48.728;9.154;2023-01-24T00:08:06;97870.50;;;1.47;98.07
14689;BME280;7432;48.728;9.154;2023-01-24T00:10:33;97874.59;;;1.49;98.44
14689;BME280;7432;48.728;9.154;2023-01-24T00:12:59;97866.53;;;1.41;97.38
14689;BME280;7432;48.728;9.154;2023-01-24T00:15:26;97879.13;;;1.43;98.07
14689;BME280;7432;48.728;9.154;2023-01-24T00:17:52;97874.28;;;1.38;98.67
14689;BME280;7432;48.728;9.154;2023-01-24T00:20:18;97868.59;;;1.33;97.89
14689;BME280;7432;48.728;9.154;2023-01-24T00:22:45;97860.97;;;1.33;97.96
14689;BME280;7432;48.728;9.154;2023-01-24T00:25:13;97861.16;;;1.47;97.89
14689;BME280;7432;48.728;9.154;2023-01-24T00:27:39;97862.75;;;1.50;98.20
14689;BME280;7432;48.728;9.154;2023-01-24T00:30:06;97866.44;;;1.43;98.09
14689;BME280;7432;48.728;9.154;2023-01-24T00:32:33;97871.59;;;1.41;97.48
14689;BME280;7432;48.728;9.154;2023-01-24T00:34:59;97882.16;;;1.32;98.15
14689;BME280;7432;48.728;9.154;2023-01-24T00:37:26;97884.78;;;1.31;99.31
14689;BME280;7432;48.728;9.154;2023-01-24T00:39:52;97883.47;;;1.41;97.79
14689;BME280;7432;48.728;9.154;2023-01-24T00:42:20;97882.72;;;1.39;98.30
14689;BME280;7432;48.728;9.154;2023-01-24T00:44:46;97887.69;;;1.40;98.58
14689;BME280;7432;48.728;9.154;2023-01-24T00:47:13;97890.50;;;1.34;97.92
14689;BME280;7432;48.728;9.154;2023-01-24T00:49:39;97884.47;;;1.37;98.16
14689;BME280;7432;48.728;9.154;2023-01-24T00:52:05;97883.03;;;1.50;97.65
14689;BME280;7432;48.728;9.154;2023-01-24T00:54:32;97885.91;;;1.42;97.42
14689;BME280;7432;48.728;9.154;2023-01-24T00:56:58;97886.81;;;1.41;97.86
14689;BME280;7432;48.728;9.154;2023-01-24T00:59:26;97889.53;;;1.37;97.42
14689;BME280;7432;48.728;9.154;2023-01-24T01:01:52;97886.06;;;1.39;98.02
14689;BME280;7432;48.728;9.154;2023-01-24T01:04:18;97885.13;;;1.42;97.49
14689;BME280;7432;48.728;9.154;2023-01-24T01:06:45;97890.94;;;1.44;96.78
14689;BME280;7432;48.728;9.154;2023-01-24T01:09:11;97897.66;;;1.45;97.09
14689;BME280;7432;48.728;9.154;2023-01-24T01:11:38;97889.06;;;1.29;97.53
14689;BME280;7432;48.728;9.154;2023-01-24T01:14:07;97879.09;;;1.26;97.38
14689;BME280;7432;48.728;9.154;2023-01-24T01:16:34;97899.66;;;1.38;97.76
14689;BME280;7432;48.728;9.154;2023-01-24T01:19:03;97900.59;;;1.36;97.12
14689;BME280;7432;48.728;9.154;2023-01-24T01:21:30;97905.81;;;1.33;97.47
14689;BME280;7432;48.728;9.154;2023-01-24T01:23:57;97900.75;;;1.33;98.07
14689;BME280;7432;48.728;9.154;2023-01-24T01:26:23;97914.91;;;1.37;97.89
14689;BME280;7432;48.728;9.154;2023-01-24T01:28:50;97905.81;;;1.33;98.54
14689;BME280;7432;48.728;9.154;2023-01-24T01:31:17;97903.34;;;1.31;97.80
14689;BME280;7432;48.728;9.154;2023-01-24T01:33:44;97902.19;;;1.38;98.24
14689;BME280;7432;48.728;9.154;2023-01-24T01:36:11;97902.41;;;1.34;97.94
14689;BME280;7432;48.728;9.154;2023-01-24T01:38:38;97907.47;;;1.34;97.81
14689;BME280;7432;48.728;9.154;2023-01-24T01:41:04;97899.69;;;1.37;98.72
14689;BME280;7432;48.728;9.154;2023-01-24T01:43:31;97891.69;;;1.27;97.84
14689;BME280;7432;48.728;9.154;2023-01-24T01:46:00;97899.78;;;1.35;97.87
14689;BME280;7432;48.728;9.154;2023-01-24T01:48:36;97898.75;;;1.39;97.46
14689;BME280;7432;48.728;9.154;2023-01-24T01:51:10;97905.81;;;1.33;97.40
14689;BME280;7432;48.728;9.154;2023-01-24T01:53:41;97914.88;;;1.38;97.36
14689;BME280;7432;48.728;9.154;2023-01-24T01:56:12;97920.78;;;1.39;97.57
14689;BME280;7432;48.728;9.154;2023-01-24T01:58:41;97905.91;;;1.31;99.18
14689;BME280;7432;48.728;9.154;2023-01-24T02:01:07;97918.16;;;1.40;97.46
14689;BME280;7432;48.728;9.154;2023-01-24T02:03:36;97907.81;;;1.45;97.62
14689;BME280;7432;48.728;9.154;2023-01-24T02:06:17;97917.28;;;1.41;97.59
14689;BME280;7432;48.728;9.154;2023-01-24T02:08:46;97921.31;;;1.45;97.35
14689;BME280;7432;48.728;9.154;2023-01-24T02:11:15;97914.03;;;1.56;97.58
14689;BME280;7432;48.728;9.154;2023-01-24T02:14:00;97913.06;;;1.40;98.49
14689;BME280;7432;48.728;9.154;2023-01-24T02:16:44;97909.44;;;1.46;97.59
14689;BME280;7432;48.728;9.154;2023-01-24T02:19:17;97909.53;;;1.44;97.40
14689;BME280;7432;48.728;9.154;2023-01-24T02:21:49;97918.09;;;1.42;98.62
14689;BME280;7432;48.728;9.154;2023-01-24T02:24:23;97923.78;;;1.47;98.33
14689;BME280;7432;48.728;9.154;2023-01-24T02:26:53;97921.84;;;1.52;97.06
14689;BME280;7432;48.728;9.154;2023-01-24T02:29:20;97936.22;;;1.53;97.26
14689;BME280;7432;48.728;9.154;2023-01-24T02:31:55;97923.91;;;1.44;97.20
14689;BME280;7432;48.728;9.154;2023-01-24T02:34:21;97919.81;;;1.41;98.00
14689;BME280;7432;48.728;9.154;2023-01-24T02:36:50;97923.34;;;1.37;97.76
14689;BME280;7432;48.728;9.154;2023-01-24T02:39:22;97923.91;;;1.44;98.07
14689;BME280;7432;48.728;9.154;2023-01-24T02:41:55;97925.97;;;1.36;97.99
14689;BME280;7432;48.728;9.154;2023-01-24T02:44:28;97932.50;;;1.41;97.54
14689;BME280;7432;48.728;9.154;2023-01-24T02:46:56;97937.50;;;1.43;97.48
14689;BME280;7432;48.728;9.154;2023-01-24T02:49:23;97934.28;;;1.39;97.88
14689;BME280;7432;48.728;9.154;2023-01-24T02:51:49;97935.09;;;1.40;98.71
14689;BME280;7432;48.728;9.154;2023-01-24T02:54:33;97938.41;;;1.42;98.72
14689;BME280;7432;48.728;9.154;2023-01-24T02:57:01;97945.19;;;1.41;97.97
14689;BME280;7432;48.728;9.154;2023-01-24T02:59:45;97932.50;;;1.41;97.65
14689;BME280;7432;48.728;9.154;2023-01-24T03:02:11;97928.84;;;1.47;98.12
14689;BME280;7432;48.728;9.154;2023-01-24T03:04:37;97932.00;;;1.52;97.70
14689;BME280;7432;48.728;9.154;2023-01-24T03:07:04;97928.50;;;1.54;98.12
14689;BME280;7432;48.728;9.154;2023-01-24T03:09:30;97940.81;;;1.45;98.68
14689;BME280;7432;48.728;9.154;2023-01-24T03:12:02;97915.63;;;1.40;98.25
14689;BME280;7432;48.728;9.154;2023-01-24T03:14:46;97935.88;;;1.42;98.09
14689;BME280;7432;48.728;9.154;2023-01-24T03:17:30;97930.91;;;1.39;98.70
14689;BME280;7432;48.728;9.154;2023-01-24T03:20:15;97926.03;;;1.34;99.36
14689;BME280;7432;48.728;9.154;2023-01-24T03:22:59;97932.00;;;1.33;98.97
14689;BME280;7432;48.728;9.154;2023-01-24T03:25:43;97929.66;;;1.29;98.95
14689;BME280;7432;48.728;9.154;2023-01-24T03:28:28;97931.28;;;1.31;99.64
14689;BME280;7432;48.728;9.154;2023-01-24T03:31:12;97928.22;;;1.23;99.71
14689;BME280;7432;48.728;9.154;2023-01-24T03:33:56;97938.09;;;1.29;99.68
14689;BME280;7432;48.728;9.154;2023-01-24T03:36:40;97933.84;;;1.30;99.53
14689;BME280;7432;48.728;9.154;2023-01-24T03:39:08;97939.28;;;1.41;99.66
14689;BME280;7432;48.728;9.154;2023-01-24T03:41:52;97937.09;;;1.33;98.88
14689;BME280;7432;48.728;9.154;2023-01-24T03:44:19;97940.63;;;1.29;99.91
14689;BME280;7432;48.728;9.154;2023-01-24T03:46:46;97946.97;;;1.39;98.95
14689;BME280;7432;48.728;9.154;2023-01-24T03:49:12;97947.41;;;1.29;99.74
14689;BME280;7432;48.728;9.154;2023-01-24T03:51:39;97946.16;;;1.39;99.00
14689;BME280;7432;48.728;9.154;2023-01-24T03:54:22;97946.00;;;1.42;98.63
14689;BME280;7432;48.728;9.154;2023-01-24T03:56:49;97947.28;;;1.50;98.25
14689;BME280;7432;48.728;9.154;2023-01-24T03:59:15;97945.94;;;1.43;99.09
14689;BME280;7432;48.728;9.154;2023-01-24T04:01:43;97943.13;;;1.49;98.40
14689;BME280;7432;48.728;9.154;2023-01-24T04:04:09;97947.09;;;1.55;99.07
14689;BME280;7432;48.728;9.154;2023-01-24T04:06:38;97948.59;;;1.59;98.19
14689;BME280;7432;48.728;9.154;2023-01-24T04:09:04;97949.91;;;1.49;98.78
14689;BME280;7432;48.728;9.154;2023-01-24T04:11:31;97952.31;;;1.52;97.46
14689;BME280;7432;48.728;9.154;2023-01-24T04:13:57;97944.91;;;1.47;97.70
14689;BME280;7432;48.728;9.154;2023-01-24T04:16:24;97949.91;;;1.49;98.53
14689;BME280;7432;48.728;9.154;2023-01-24T04:18:51;97943.13;;;1.49;98.63
14689;BME280;7432;48.728;9.154;2023-01-24T04:21:17;97946.97;;;1.39;98.54
14689;BME280;7432;48.728;9.154;2023-01-24T04:23:44;97939.19;;;1.42;98.05
14689;BME280;7432;48.728;9.154;2023-01-24T04:26:10;97938.78;;;1.33;98.72
14689;BME280;7432;48.728;9.154;2023-01-24T04:28:36;97943.25;;;1.28;99.87
14689;BME280;7432;48.728;9.154;2023-01-24T04:31:03;97942.16;;;1.33;98.70
14689;BME280;7432;48.728;9.154;2023-01-24T04:33:30;97940.47;;;1.34;99.80
14689;BME280;7432;48.728;9.154;2023-01-24T04:35:58;97945.44;;;1.35;100.00
14689;BME280;7432;48.728;9.154;2023-01-24T04:38:24;97945.22;;;1.40;99.58
14689;BME280;7432;48.728;9.154;2023-01-24T04:40:58;97942.69;;;1.40;99.76
14689;BME280;7432;48.728;9.154;2023-01-24T04:43:24;97945.53;;;1.34;99.40
14689;BME280;7432;48.728;9.154;2023-01-24T04:45:54;97954.59;;;1.39;98.53
14689;BME280;7432;48.728;9.154;2023-01-24T04:48:21;97955.69;;;1.34;99.47
14689;BME280;7432;48.728;9.154;2023-01-24T04:50:47;97948.06;;;1.34;98.91
14689;BME280;7432;48.728;9.154;2023-01-24T04:53:15;97953.81;;;1.37;99.15
14689;BME280;7432;48.728;9.154;2023-01-24T04:55:41;97954.97;;;1.49;99.17
14689;BME280;7432;48.728;9.154;2023-01-24T04:58:07;97951.00;;;1.43;98.38
14689;BME280;7432;48.728;9.154;2023-01-24T05:00:34;97956.16;;;1.42;98.75
14689;BME280;7432;48.728;9.154;2023-01-24T05:03:00;97966.50;;;1.37;99.64
14689;BME280;7432;48.728;9.154;2023-01-24T05:05:26;97960.31;;;1.43;99.28
14689;BME280;7432;48.728;9.154;2023-01-24T05:07:53;97973.78;;;1.45;99.63
14689;BME280;7432;48.728;9.154;2023-01-24T05:10:20;97971.31;;;1.43;99.44
14689;BME280;7432;48.728;9.154;2023-01-24T05:12:48;97968.03;;;1.41;99.03
14689;BME280;7432;48.728;9.154;2023-01-24T05:15:15;97967.09;;;1.42;99.94
14689;BME280;7432;48.728;9.154;2023-01-24T05:17:43;97953.53;;;1.25;100.00
14689;BME280;7432;48.728;9.154;2023-01-24T05:20:10;97973.50;;;1.32;100.00
14689;BME280;7432;48.728;9.154;2023-01-24T05:22:36;97973.94;;;1.42;99.96
14689;BME280;7432;48.728;9.154;2023-01-24T05:25:04;97981.47;;;1.43;98.79
14689;BME280;7432;48.728;9.154;2023-01-24T05:27:31;97978.03;;;1.44;99.95
14689;BME280;7432;48.728;9.154;2023-01-24T05:29:58;97976.66;;;1.37;99.50
14689;BME280;7432;48.728;9.154;2023-01-24T05:32:24;97977.72;;;1.32;100.00
14689;BME280;7432;48.728;9.154;2023-01-24T05:34:50;97975.28;;;1.30;99.42
14689;BME280;7432;48.728;9.154;2023-01-24T05:37:17;97979.19;;;1.37;100.00
14689;BME280;7432;48.728;9.154;2023-01-24T05:39:43;97981.66;;;1.39;100.00
14689;BME280;7432;48.728;9.154;2023-01-24T05:42:09;97990.84;;;1.41;99.81
14689;BME280;7432;48.728;9.154;2023-01-24T05:44:37;97996.56;;;1.46;100.00
14689;BME280;7432;48.728;9.154;2023-01-24T05:47:03;97999.44;;;1.39;99.64
14689;BME280;7432;48.728;9.154;2023-01-24T05:49:30;98000.94;;;1.43;100.00
14689;BME280;7432;48.728;9.154;2023-01-24T05:51:56;97997.16;;;1.33;100.00
14689;BME280;7432;48.728;9.154;2023-01-24T05:54:22;97997.84;;;1.36;99.93
14689;BME280;7432;48.728;9.154;2023-01-24T05:56:49;98003.88;;;1.34;100.00
14689;BME280;7432;48.728;9.154;2023-01-24T05:59:15;97992.47;;;1.42;100.00
14689;BME280;7432;48.728;9.154;2023-01-24T06:01:43;97997.63;;;1.41;99.68
14689;BME280;7432;48.728;9.154;2023-01-24T06:04:09;98003.41;;;1.44;100.00
14689;BME280;7432;48.728;9.154;2023-01-24T06:06:36;97993.25;;;1.44;100.00
14689;BME280;7432;48.728;9.154;2023-01-24T06:09:02;97991.47;;;1.46;100.00
14689;BME280;7432;48.728;9.154;2023-01-24T06:11:29;98000.53;;;1.52;99.85
14689;BME280;7432;48.728;9.154;2023-01-24T06:13:57;97990.84;;;1.41;99.59
14689;BME280;7432;48.728;9.154;2023-01-24T06:16:25;97998.88;;;1.51;99.34
14689;BME280;7432;48.728;9.154;2023-01-24T06:18:54;98005.41;;;1.56;98.82
14689;BME280;7432;48.728;9.154;2023-01-24T06:21:33;98007.09;;;1.56;99.31
14689;BME280;7432;48.728;9.154;2023-01-24T06:24:03;97992.69;;;1.38;100.00
14689;BME280;7432;48.728;9.154;2023-01-24T06:26:31;98005.88;;;1.46;100.00
14689;BME280;7432;48.728;9.154;2023-01-24T06:28:58;98007.59;;;1.45;99.24
14689;BME280;7432;48.728;9.154;2023-01-24T06:31:30;97992.44;;;1.44;99.60
14689;BME280;7432;48.728;9.154;2023-01-24T06:34:21;98005.13;;;1.44;99.39
14689;BME280;7432;48.728;9.154;2023-01-24T06:37:00;98008.50;;;1.44;99.24
14689;BME280;7432;48.728;9.154;2023-01-24T06:39:30;98010.94;;;1.46;99.81
14689;BME280;7432;48.728;9.154;2023-01-24T06:41:57;98012.00;;;1.42;100.00
14689;BME280;7432;48.728;9.154;2023-01-24T06:44:24;98023.34;;;1.33;100.00
14689;BME280;7432;48.728;9.154;2023-01-24T06:46:50;98017.38;;;1.34;100.00
14689;BME280;7432;48.728;9.154;2023-01-24T06:49:18;98025.47;;;1.42;100.00
14689;BME280;7432;48.728;9.154;2023-01-24T06:51:49;98017.81;;;1.44;100.00
14689;BME280;7432;48.728;9.154;2023-01-24T06:54:15;98022.00;;;1.45;99.99
14689;BME280;7432;48.728;9.154;2023-01-24T06:56:42;98034.25;;;1.35;100.00
14689;BME280;7432;48.728;9.154;2023-01-24T06:59:08;98019.78;;;1.37;99.56
14689;BME280;7432;48.728;9.154;2023-01-24T07:01:35;98029.66;;;1.43;99.45
14689;BME280;7432;48.728;9.154;2023-01-24T07:04:01;98038.59;;;1.52;98.56
14689;BME280;7432;48.728;9.154;2023-01-24T07:06:29;98054.78;;;1.49;99.21
14689;BME280;7432;48.728;9.154;2023-01-24T07:08:55;98044.28;;;1.38;99.23
14689;BME280;7432;48.728;9.154;2023-01-24T07:11:21;98041.16;;;1.32;100.00
14689;BME280;7432;48.728;9.154;2023-01-24T07:13:49;98036.88;;;1.34;100.00
14689;BME280;7432;48.728;9.154;2023-01-24T07:16:15;98035.22;;;1.33;99.17
14689;BME280;7432;48.728;9.154;2023-01-24T07:18:42;98049.41;;;1.37;99.65
14689;BME280;7432;48.728;9.154;2023-01-24T07:21:09;98047.56;;;1.40;98.99
14689;BME280;7432;48.728;9.154;2023-01-24T07:23:39;98048.13;;;1.47;99.86
14689;BME280;7432;48.728;9.154;2023-01-24T07:26:10;98049.75;;;1.48;99.79
14689;BME280;7432;48.728;9.154;2023-01-24T07:28:37;98047.09;;;1.51;99.28
14689;BME280;7432;48.728;9.154;2023-01-24T07:31:04;98053.75;;;1.53;99.00
14689;BME280;7432;48.728;9.154;2023-01-24T07:33:31;98064.25;;;1.46;98.49
14689;BME280;7432;48.728;9.154;2023-01-24T07:35:57;98056.84;;;1.41;99.42
14689;BME280;7432;48.728;9.154;2023-01-24T07:38:24;98061.50;;;1.50;99.76
14689;BME280;7432;48.728;9.154;2023-01-24T07:40:52;98056.75;;;1.43;99.20
14689;BME280;7432;48.728;9.154;2023-01-24T07:43:18;98067.28;;;1.54;98.22
14689;BME280;7432;48.728;9.154;2023-01-24T07:45:45;98069.63;;;1.58;98.38
14689;BME280;7432;48.728;9.154;2023-01-24T07:48:11;98067.28;;;1.72;98.73
14689;BME280;7432;48.728;9.154;2023-01-24T07:50:38;98072.31;;;1.74;98.84
14689;BME280;7432;48.728;9.154;2023-01-24T07:53:04;98074.91;;;1.72;98.68
14689;BME280;7432;48.728;9.154;2023-01-24T07:55:30;98080.00;;;1.72;98.82
14689;BME280;7432;48.728;9.154;2023-01-24T07:57:59;98088.97;;;1.61;98.25
14689;BME280;7432;48.728;9.154;2023-01-24T08:00:26;98081.16;;;1.65;98.51
14689;BME280;7432;48.728;9.154;2023-01-24T08:02:53;98093.63;;;1.70;99.17
14689;BME280;7432;48.728;9.154;2023-01-24T08:05:19;98100.88;;;1.79;98.47
14689;BME280;7432;48.728;9.154;2023-01-24T08:07:45;98095.88;;;1.77;98.50
14689;BME280;7432;48.728;9.154;2023-01-24T08:10:12;98086.03;;;1.70;97.92
14689;BME280;7432;48.728;9.154;2023-01-24T08:12:38;98091.94;;;1.70;97.98
14689;BME280;7432;48.728;9.154;2023-01-24T08:15:07;98092.63;;;1.74;97.27
14689;BME280;7432;48.728;9.154;2023-01-24T08:17:35;98096.66;;;1.78;97.81
14689;BME280;7432;48.728;9.154;2023-01-24T08:20:01;98097.00;;;1.70;98.06
14689;BME280;7432;48.728;9.154;2023-01-24T08:22:28;98096.19;;;1.70;97.93
14689;BME280;7432;48.728;9.154;2023-01-24T08:24:54;98103.63;;;1.74;97.52
14689;BME280;7432;48.728;9.154;2023-01-24T08:27:21;98111.09;;;1.77;97.76
14689;BME280;7432;48.728;9.154;2023-01-24T08:29:47;98110.91;;;1.82;97.44
14689;BME280;7432;48.728;9.154;2023-01-24T08:32:15;98111.38;;;1.71;97.56
14689;BME280;7432;48.728;9.154;2023-01-24T08:34:41;98106.97;;;1.75;97.17
14689;BME280;7432;48.728;9.154;2023-01-24T08:37:08;98114.44;;;1.78;97.35
14689;BME280;7432;48.728;9.154;2023-01-24T08:39:34;98102.44;;;1.82;97.07
14689;BME280;7432;48.728;9.154;2023-01-24T08:42:01;98109.69;;;1.91;96.84
14689;BME280;7432;48.728;9.154;2023-01-24T08:44:27;98117.34;;;1.89;96.69
14689;BME280;7432;48.728;9.154;2023-01-24T08:46:53;98114.81;;;1.89;96.13
14689;BME280;7432;48.728;9.154;2023-01-24T08:49:21;98117.69;;;1.82;97.60
14689;BME280;7432;48.728;9.154;2023-01-24T08:51:48;98121.81;;;1.84;97.08
14689;BME280;7432;48.728;9.154;2023-01-24T08:54:15;98127.50;;;1.89;97.12
14689;BME280;7432;48.728;9.154;2023-01-24T08:56:41;98129.88;;;1.94;96.00
14689;BME280;7432;48.728;9.154;2023-01-24T08:59:08;98130.06;;;2.08;95.97
14689;BME280;7432;48.728;9.154;2023-01-24T09:01:34;98125.94;;;2.05;95.72
14689;BME280;7432;48.728;9.154;2023-01-24T09:04:01;98125.31;;;2.00;95.58
14689;BME280;7432;48.728;9.154;2023-01-24T09:06:31;98120.31;;;1.99;95.66
14689;BME280;7432;48.728;9.154;2023-01-24T09:08:57;98133.56;;;2.05;95.98
14689;BME280;7432;48.728;9.154;2023-01-24T09:11:23;98134.34;;;2.07;95.96
14689;BME280;7432;48.728;9.154;2023-01-24T09:13:50;98139.34;;;2.09;95.35
14689;BME280;7432;48.728;9.154;2023-01-24T09:16:16;98133.66;;;2.22;95.13
14689;BME280;7432;48.728;9.154;2023-01-24T09:18:43;98139.28;;;2.29;95.70
14689;BME280;7432;48.728;9.154;2023-01-24T09:21:09;98140.59;;;2.37;94.90
14689;BME280;7432;48.728;9.154;2023-01-24T09:23:37;98134.69;;;2.37;93.56
14689;BME280;7432;48.728;9.154;2023-01-24T09:26:03;98140.44;;;2.22;95.10
14689;BME280;7432;48.728;9.154;2023-01-24T09:28:30;98139.00;;;2.16;95.16
14689;BME280;7432;48.728;9.154;2023-01-24T09:30:57;98142.09;;;2.23;94.90
14689;BME280;7432;48.728;9.154;2023-01-24T09:33:23;98131.81;;;2.26;94.08
14689;BME280;7432;48.728;9.154;2023-01-24T09:35:52;98146.91;;;2.29;93.73
14689;BME280;7432;48.728;9.154;2023-01-24T09:38:19;98148.91;;;2.22;94.03
14689;BME280;7432;48.728;9.154;2023-01-24T09:40:52;98147.53;;;2.34;93.40
14689;BME280;7432;48.728;9.154;2023-01-24T09:43:30;98152.19;;;2.24;93.26
14689;BME280;7432;48.728;9.154;2023-01-24T09:46:10;98155.44;;;2.28;94.46
14689;BME280;7432;48.728;9.154;2023-01-24T09:48:40;98150.81;;;2.36;94.64
14689;BME280;7432;48.728;9.154;2023-01-24T09:51:13;98150.28;;;2.48;93.84
14689;BME280;7432;48.728;9.154;2023-01-24T09:53:43;98142.56;;;2.50;93.20
14689;BME280;7432;48.728;9.154;2023-01-24T09:56:19;98144.97;;;2.53;93.25
14689;BME280;7432;48.728;9.154;2023-01-24T09:58:58;98146.28;;;2.61;92.91
14689;BME280;7432;48.728;9.154;2023-01-24T10:01:36;98141.75;;;2.49;92.88
14689;BME280;7432;48.728;9.154;2023-01-24T10:04:12;98149.66;;;2.62;92.19
14689;BME280;7432;48.728;9.154;2023-01-24T10:06:41;98141.69;;;2.32;93.28
14689;BME280;7432;48.728;9.154;2023-01-24T10:09:13;98153.94;;;2.43;93.96
14689;BME280;7432;48.728;9.154;2023-01-24T10:11:49;98166.56;;;2.44;93.58
14689;BME280;7432;48.728;9.154;2023-01-24T10:14:27;98165.44;;;2.50;94.10
14689;BME280;7432;48.728;9.154;2023-01-24T10:17:28;98166.50;;;2.46;94.27
14689;BME280;7432;48.728;9.154;2023-01-24T10:20:28;98148.41;;;2.52;93.58
14689;BME280;7432;48.728;9.154;2023-01-24T10:23:02;98151.22;;;2.64;93.25
14689;BME280;7432;48.728;9.154;2023-01-24T10:25:33;98149.69;;;2.60;92.24
14689;BME280;7432;48.728;9.154;2023-01-24T10:28:14;98155.00;;;2.56;93.66
14689;BME280;7432;48.728;9.154;2023-01-24T10:30:47;98150.06;;;2.53;93.54
14689;BME280;7432;48.728;9.154;2023-01-24T10:33:17;98152.34;;;2.59;93.10
14689;BME280;7432;48.728;9.154;2023-01-24T10:35:53;98154.25;;;2.72;92.48
14689;BME280;7432;48.728;9.154;2023-01-24T10:38:21;98148.31;;;2.72;92.83
14689;BME280;7432;48.728;9.154;2023-01-24T10:40:49;98153.66;;;2.84;92.23
14689;BME280;7432;48.728;9.154;2023-01-24T10:43:17;98151.19;;;2.83;92.45
14689;BME280;7432;48.728;9.154;2023-01-24T10:45:51;98143.47;;;2.67;92.35
14689;BME280;7432;48.728;9.154;2023-01-24T10:48:29;98149.72;;;2.96;92.43
14689;BME280;7432;48.728;9.154;2023-01-24T10:51:11;98139.59;;;2.77;92.00
14689;BME280;7432;48.728;9.154;2023-01-24T10:53:38;98131.97;;;2.77;92.14
14689;BME280;7432;48.728;9.154;2023-01-24T10:56:05;98138.97;;;2.72;93.08
14689;BME280;7432;48.728;9.154;2023-01-24T10:58:35;98133.03;;;2.90;92.10
14689;BME280;7432;48.728;9.154;2023-01-24T11:01:05;98131.69;;;3.00;91.24
14689;BME280;7432;48.728;9.154;2023-01-24T11:03:33;98117.38;;;2.98;90.65
14689;BME280;7432;48.728;9.154;2023-01-24T11:06:00;98129.50;;;2.76;92.00
14689;BME280;7432;48.728;9.154;2023-01-24T11:08:33;98126.22;;;2.91;91.65
14689;BME280;7432;48.728;9.154;2023-01-24T11:11:00;98117.38;;;2.98;90.80
14689;BME280;7432;48.728;9.154;2023-01-24T11:13:35;98124.59;;;3.07;91.01
14689;BME280;7432;48.728;9.154;2023-01-24T11:16:04;98125.56;;;3.05;90.79
14689;BME280;7432;48.728;9.154;2023-01-24T11:18:33;98119.78;;;3.01;90.41
14689;BME280;7432;48.728;9.154;2023-01-24T11:21:08;98131.16;;;2.94;90.21
14689;BME280;7432;48.728;9.154;2023-01-24T11:23:35;98129.97;;;3.01;90.99
14689;BME280;7432;48.728;9.154;2023-01-24T11:26:04;98125.25;;;2.93;91.00
14689;BME280;7432;48.728;9.154;2023-01-24T11:28:32;98131.16;;;2.94;90.63
14689;BME280;7432;48.728;9.154;2023-01-24T11:31:01;98129.72;;;2.88;90.56
14689;BME280;7432;48.728;9.154;2023-01-24T11:33:37;98119.44;;;3.09;90.39
14689;BME280;7432;48.728;9.154;2023-01-24T11:36:14;98122.44;;;3.17;90.55
14689;BME280;7432;48.728;9.154;2023-01-24T11:38:49;98123.06;;;2.86;91.02
14689;BME280;7432;48.728;9.154;2023-01-24T11:41:23;98123.91;;;2.86;90.99
14689;BME280;7432;48.728;9.154;2023-01-24T11:44:23;98116.03;;;2.91;90.83
14689;BME280;7432;48.728;9.154;2023-01-24T11:47:00;98108.84;;;2.82;91.23
14689;BME280;7432;48.728;9.154;2023-01-24T11:49:45;98119.72;;;3.03;91.49
14689;BME280;7432;48.728;9.154;2023-01-24T11:52:33;98113.28;;;2.95;90.93
14689;BME280;7432;48.728;9.154;2023-01-24T11:55:10;98115.59;;;2.83;91.45
14689;BME280;7432;48.728;9.154;2023-01-24T11:57:45;98104.34;;;2.87;91.83
14689;BME280;7432;48.728;9.154;2023-01-24T12:00:24;98108.19;;;2.95;90.26
14689;BME280;7432;48.728;9.154;2023-01-24T12:03:18;98100.09;;;2.87;91.13
14689;BME280;7432;48.728;9.154;2023-01-24T12:06:00;98103.94;;;2.96;90.53
14689;BME280;7432;48.728;9.154;2023-01-24T12:08:43;98088.44;;;2.83;91.62
14689;BME280;7432;48.728;9.154;2023-01-24T12:11:15;98088.63;;;2.79;91.44
14689;BME280;7432;48.728;9.154;2023-01-24T12:13:48;98097.88;;;2.98;92.01
14689;BME280;7432;48.728;9.154;2023-01-24T12:16:30;98085.28;;;2.95;91.26
14689;BME280;7432;48.728;9.154;2023-01-24T12:19:24;98093.16;;;2.91;91.24
14689;BME280;7432;48.728;9.154;2023-01-24T12:21:57;98073.69;;;2.90;91.46
14689;BME280;7432;48.728;9.154;2023-01-24T12:24:26;98084.25;;;2.99;90.96
14689;BME280;7432;48.728;9.154;2023-01-24T12:26:55;98081.78;;;2.98;90.88
14689;BME280;7432;48.728;9.154;2023-01-24T12:29:27;98081.53;;;3.20;91.00
14689;BME280;7432;48.728;9.154;2023-01-24T12:31:59;98077.06;;;3.08;90.23
14689;BME280;7432;48.728;9.154;2023-01-24T12:34:35;98081.78;;;2.98;91.55
14689;BME280;7432;48.728;9.154;2023-01-24T12:37:12;98078.50;;;3.13;91.64
14689;BME280;7432;48.728;9.154;2023-01-24T12:39:47;98085.44;;;3.27;90.64
14689;BME280;7432;48.728;9.154;2023-01-24T12:42:18;98079.19;;;3.17;90.88
14689;BME280;7432;48.728;9.154;2023-01-24T12:44:52;98079.22;;;3.15;90.35
14689;BME280;7432;48.728;9.154;2023-01-24T12:47:28;98081.53;;;3.20;90.00
14689;BME280;7432;48.728;9.154;2023-01-24T12:50:11;98067.69;;;3.25;89.39
14689;BME280;7432;48.728;9.154;2023-01-24T12:52:42;98057.16;;;3.16;89.71
14689;BME280;7432;48.728;9.154;2023-01-24T12:55:14;98068.66;;;3.23;89.73
14689;BME280;7432;48.728;9.154;2023-01-24T12:57:44;98052.38;;;3.10;89.83
14689;BME280;7432;48.728;9.154;2023-01-24T13:00:16;98062.09;;;3.19;90.21
14689;BME280;7432;48.728;9.154;2023-01-24T13:03:09;98063.13;;;3.15;90.29
14689;BME280;7432;48.728;9.154;2023-01-24T13:05:49;98042.56;;;3.02;90.26
14689;BME280;7432;48.728;9.154;2023-01-24T13:08:26;98069.16;;;3.14;90.97
14689;BME280;7432;48.728;9.154;2023-01-24T13:11:02;98063.91;;;3.17;90.63
14689;BME280;7432;48.728;9.154;2023-01-24T13:13:36;98069.97;;;2.97;91.48
14689;BME280;7432;48.728;9.154;2023-01-24T13:16:17;98073.47;;;2.94;92.17
14689;BME280;7432;48.728;9.154;2023-01-24T13:18:57;98039.50;;;2.78;91.79
14689;BME280;7432;48.728;9.154;2023-01-24T13:21:29;98066.56;;;2.79;92.30
14689;BME280;7432;48.728;9.154;2023-01-24T13:24:23;98065.09;;;2.75;92.24
14689;BME280;7432;48.728;9.154;2023-01-24T13:27:01;98063.72;;;2.68;92.45
14689;BME280;7432;48.728;9.154;2023-01-24T13:32:30;98063.81;;;2.67;93.14
14689;BME280;7432;48.728;9.154;2023-01-24T13:35:13;98070.19;;;2.75;91.86
14689;BME280;7432;48.728;9.154;2023-01-24T13:37:48;98072.25;;;2.67;92.79
14689;BME280;7432;48.728;9.154;2023-01-24T13:40:22;98066.41;;;2.65;92.33